^^
Station Historical Data
Daily Summary for October 23, 2017 Units:  Both    English   Metric
« Previous Day
Next Day »
Daily Weekly Monthly Yearly Custom
  High: Low: Average:
Temperature: TemperatureF °F /  -17.8 °C 57.0 °F /  13.9 °C 74.3 °F /  23.5 °C
Dew Point: DewpointF °F /  -17.8 °C 24.3 °F /  -4.3 °C 36.3 °F /  2.4 °C
Humidity: Humidity% 11% 29%
Wind Speed: WindSpeedMPHmph /  0km/h - 1.8mph /  2.9km/h
Wind Gust: WindSpeedGustMPHmph /  0km/h - -
Wind- - West
Pressure: PressureIn in /  0 hPa 29.69 in /  1005.3 hPa -
Precipitation: 0.00 in /  0 mm    
Historical Graphs
 
 
Tabular Data for October 23, 2017
Time Temperature Dew Point Pressure Wind Wind Speed Wind Gust Humidity Rainfall Rate (Hourly) solar Conditions
TemperatureF °F /  -17.8 °C DewpointF °F /  -17.8 °C PressureInin /  0hPa Calm     Humidity% HourlyPrecipInin /  0mm SolarRadiationWatts/m^2 W/m2 Conditions
00:00 66.6 °F /  19.2 °C 29.7 °F /  -1.3 °C 29.85in /  1010.7hPa Calm     25% 0.00in /  0mm 0.0 W/m2
00:05 66.6 °F /  19.2 °C 29.7 °F /  -1.3 °C 29.85in /  1010.7hPa Calm     25% 0.00in /  0mm 0.0 W/m2
00:10 66.6 °F /  19.2 °C 29.7 °F /  -1.3 °C 29.86in /  1011.1hPa Calm     25% 0.00in /  0mm 0.0 W/m2
00:16 66.4 °F /  19.1 °C 30.4 °F /  -0.9 °C 29.85in /  1010.7hPa Calm     26% 0.00in /  0mm 0.0 W/m2
00:21 66.4 °F /  19.1 °C 30.4 °F /  -0.9 °C 29.85in /  1010.7hPa Calm     26% 0.00in /  0mm 0.0 W/m2
00:26 66.0 °F /  18.9 °C 30.2 °F /  -1 °C 29.85in /  1010.7hPa Calm     26% 0.00in /  0mm 0.0 W/m2
00:32 66.0 °F /  18.9 °C 30.2 °F /  -1 °C 29.85in /  1010.7hPa Calm     26% 0.00in /  0mm 0.0 W/m2
00:38 65.8 °F /  18.8 °C 30.9 °F /  -0.6 °C 29.84in /  1010.4hPa Calm     27% 0.00in /  0mm 0.0 W/m2
00:43 65.7 °F /  18.7 °C 31.6 °F /  -0.2 °C 29.84in /  1010.4hPa Calm     28% 0.00in /  0mm 0.0 W/m2
00:48 65.7 °F /  18.7 °C 31.6 °F /  -0.2 °C 29.84in /  1010.4hPa Calm     28% 0.00in /  0mm 0.0 W/m2
00:53 65.5 °F /  18.6 °C 32.4 °F /  0.2 °C 29.83in /  1010hPa Calm     29% 0.00in /  0mm 0.0 W/m2
00:59 65.1 °F /  18.4 °C 32.0 °F /  0 °C 29.83in /  1010hPa Calm     29% 0.00in /  0mm 0.0 W/m2
01:04 65.1 °F /  18.4 °C 32.9 °F /  0.5 °C 29.83in /  1010hPa Calm     30% 0.00in /  0mm 0.0 W/m2
01:10 64.8 °F /  18.2 °C 33.4 °F /  0.8 °C 29.83in /  1010hPa Calm     31% 0.00in /  0mm 0.0 W/m2
01:15 64.6 °F /  18.1 °C 34.0 °F /  1.1 °C 29.83in /  1010hPa Calm     32% 0.00in /  0mm 0.0 W/m2
01:20 64.2 °F /  17.9 °C 34.5 °F /  1.4 °C 29.83in /  1010hPa Calm     33% 0.00in /  0mm 0.0 W/m2
01:25 64.0 °F /  17.8 °C 34.3 °F /  1.3 °C 29.83in /  1010hPa Calm     33% 0.00in /  0mm 0.0 W/m2
01:30 63.9 °F /  17.7 °C 33.4 °F /  0.8 °C 29.83in /  1010hPa Calm     32% 0.00in /  0mm 0.0 W/m2
01:36 63.7 °F /  17.6 °C 33.3 °F /  0.7 °C 29.82in /  1009.7hPa Calm     32% 0.00in /  0mm 0.0 W/m2
01:41 63.3 °F /  17.4 °C 32.9 °F /  0.5 °C 29.82in /  1009.7hPa Calm     32% 0.00in /  0mm 0.0 W/m2
01:46 63.1 °F /  17.3 °C 33.6 °F /  0.9 °C 29.82in /  1009.7hPa Calm     33% 0.00in /  0mm 0.0 W/m2
01:52 63.0 °F /  17.2 °C 33.4 °F /  0.8 °C 29.83in /  1010hPa Calm     33% 0.00in /  0mm 0.0 W/m2
01:57 63.0 °F /  17.2 °C 33.4 °F /  0.8 °C 29.83in /  1010hPa Calm   1.0mph /  1.6km/h 33% 0.00in /  0mm 0.0 W/m2
02:02 62.8 °F /  17.1 °C 34.0 °F /  1.1 °C 29.83in /  1010hPa Calm   4.0mph /  6.4km/h 34% 0.00in /  0mm 0.0 W/m2
02:08 63.1 °F /  17.3 °C 35.1 °F /  1.7 °C 29.83in /  1010hPa Calm   3.0mph /  4.8km/h 35% 0.00in /  0mm 0.0 W/m2
02:13 63.1 °F /  17.3 °C 35.1 °F /  1.7 °C 29.83in /  1010hPa Calm   1.0mph /  1.6km/h 35% 0.00in /  0mm 0.0 W/m2
02:19 63.1 °F /  17.3 °C 36.5 °F /  2.5 °C 29.83in /  1010hPa Calm   2.0mph /  3.2km/h 37% 0.00in /  0mm 0.0 W/m2
02:25 63.1 °F /  17.3 °C 37.8 °F /  3.2 °C 29.83in /  1010hPa ENE 0.9mph /  1.4km/h 1.0mph /  1.6km/h 39% 0.00in /  0mm 0.0 W/m2
02:30 63.0 °F /  17.2 °C 37.6 °F /  3.1 °C 29.83in /  1010hPa Calm   2.0mph /  3.2km/h 39% 0.00in /  0mm 0.0 W/m2
02:35 62.8 °F /  17.1 °C 38.1 °F /  3.4 °C 29.82in /  1009.7hPa Calm   1.0mph /  1.6km/h 40% 0.00in /  0mm 0.0 W/m2
02:41 62.8 °F /  17.1 °C 38.7 °F /  3.7 °C 29.83in /  1010hPa Calm   4.0mph /  6.4km/h 41% 0.00in /  0mm 0.0 W/m2
02:46 62.8 °F /  17.1 °C 39.4 °F /  4.1 °C 29.82in /  1009.7hPa Calm   2.0mph /  3.2km/h 42% 0.00in /  0mm 0.0 W/m2
02:51 62.8 °F /  17.1 °C 39.4 °F /  4.1 °C 29.82in /  1009.7hPa Calm     42% 0.00in /  0mm 0.0 W/m2
02:57 63.0 °F /  17.2 °C 40.1 °F /  4.5 °C 29.82in /  1009.7hPa Calm   2.0mph /  3.2km/h 43% 0.00in /  0mm 0.0 W/m2
03:02 63.0 °F /  17.2 °C 40.1 °F /  4.5 °C 29.83in /  1010hPa Calm   1.0mph /  1.6km/h 43% 0.00in /  0mm 0.0 W/m2
03:07 63.0 °F /  17.2 °C 40.6 °F /  4.8 °C 29.82in /  1009.7hPa Calm   1.0mph /  1.6km/h 44% 0.00in /  0mm 0.0 W/m2
03:13 63.0 °F /  17.2 °C 40.6 °F /  4.8 °C 29.83in /  1010hPa Calm     44% 0.00in /  0mm 0.0 W/m2
03:18 63.0 °F /  17.2 °C 41.4 °F /  5.2 °C 29.83in /  1010hPa Calm     45% 0.00in /  0mm 0.0 W/m2
03:23 62.8 °F /  17.1 °C 40.5 °F /  4.7 °C 29.83in /  1010hPa Calm     44% 0.00in /  0mm 0.0 W/m2
03:28 62.8 °F /  17.1 °C 41.2 °F /  5.1 °C 29.82in /  1009.7hPa Calm     45% 0.00in /  0mm 0.0 W/m2
03:33 62.4 °F /  16.9 °C 40.8 °F /  4.9 °C 29.83in /  1010hPa Calm     45% 0.00in /  0mm 0.0 W/m2
03:39 62.2 °F /  16.8 °C 41.7 °F /  5.4 °C 29.83in /  1010hPa Calm     47% 0.00in /  0mm 0.0 W/m2
03:44 62.1 °F /  16.7 °C 41.5 °F /  5.3 °C 29.83in /  1010hPa Calm     47% 0.00in /  0mm 0.0 W/m2
03:49 61.9 °F /  16.6 °C 41.4 °F /  5.2 °C 29.82in /  1009.7hPa Calm     47% 0.00in /  0mm 0.0 W/m2
03:55 61.7 °F /  16.5 °C 41.2 °F /  5.1 °C 29.82in /  1009.7hPa Calm     47% 0.00in /  0mm 0.0 W/m2
04:00 61.5 °F /  16.4 °C 41.7 °F /  5.4 °C 29.83in /  1010hPa Calm     48% 0.00in /  0mm 0.0 W/m2
04:05 61.3 °F /  16.3 °C 42.1 °F /  5.6 °C 29.82in /  1009.7hPa Calm     49% 0.00in /  0mm 0.0 W/m2
04:11 61.2 °F /  16.2 °C 41.4 °F /  5.2 °C 29.82in /  1009.7hPa Calm     48% 0.00in /  0mm 0.0 W/m2
04:16 61.0 °F /  16.1 °C 41.7 °F /  5.4 °C 29.82in /  1009.7hPa Calm     49% 0.00in /  0mm 0.0 W/m2
04:21 60.8 °F /  16 °C 42.1 °F /  5.6 °C 29.82in /  1009.7hPa Calm     50% 0.00in /  0mm 0.0 W/m2
04:27 60.6 °F /  15.9 °C 42.4 °F /  5.8 °C 29.82in /  1009.7hPa Calm     51% 0.00in /  0mm 0.0 W/m2
04:32 60.6 °F /  15.9 °C 41.9 °F /  5.5 °C 29.82in /  1009.7hPa Calm     50% 0.00in /  0mm 0.0 W/m2
04:37 60.4 °F /  15.8 °C 41.7 °F /  5.4 °C 29.82in /  1009.7hPa Calm     50% 0.00in /  0mm 0.0 W/m2
04:43 60.1 °F /  15.6 °C 41.4 °F /  5.2 °C 29.82in /  1009.7hPa Calm     50% 0.00in /  0mm 0.0 W/m2
04:48 60.1 °F /  15.6 °C 41.9 °F /  5.5 °C 29.82in /  1009.7hPa Calm     51% 0.00in /  0mm 0.0 W/m2
04:53 59.7 °F /  15.4 °C 41.5 °F /  5.3 °C 29.82in /  1009.7hPa Calm     51% 0.00in /  0mm 0.0 W/m2
04:59 59.5 °F /  15.3 °C 41.4 °F /  5.2 °C 29.82in /  1009.7hPa Calm     51% 0.00in /  0mm 0.0 W/m2
05:04 59.5 °F /  15.3 °C 41.4 °F /  5.2 °C 29.82in /  1009.7hPa Calm     51% 0.00in /  0mm 0.0 W/m2
05:09 59.4 °F /  15.2 °C 41.7 °F /  5.4 °C 29.82in /  1009.7hPa Calm     52% 0.00in /  0mm 0.0 W/m2
05:15 59.2 °F /  15.1 °C 41.5 °F /  5.3 °C 29.82in /  1009.7hPa Calm     52% 0.00in /  0mm 0.0 W/m2
05:20 58.8 °F /  14.9 °C 41.7 °F /  5.4 °C 29.82in /  1009.7hPa Calm     53% 0.00in /  0mm 0.0 W/m2
05:25 58.8 °F /  14.9 °C 41.7 °F /  5.4 °C 29.82in /  1009.7hPa Calm     53% 0.00in /  0mm 0.0 W/m2
05:26 58.6 °F /  14.8 °C 41.5 °F /  5.3 °C 29.82in /  1009.7hPa Calm     53% 0.00in /  0mm 0.0 W/m2
05:32 58.5 °F /  14.7 °C 41.4 °F /  5.2 °C 29.82in /  1009.7hPa Calm     53% 0.00in /  0mm 0.0 W/m2
05:37 58.3 °F /  14.6 °C 41.7 °F /  5.4 °C 29.82in /  1009.7hPa Calm     54% 0.00in /  0mm 0.0 W/m2
05:42 58.1 °F /  14.5 °C 42.1 °F /  5.6 °C 29.83in /  1010hPa Calm     55% 0.00in /  0mm 0.0 W/m2
05:52 57.7 °F /  14.3 °C 41.7 °F /  5.4 °C 29.83in /  1010hPa Calm     55% 0.00in /  0mm 0.0 W/m2
05:58 57.6 °F /  14.2 °C 41.5 °F /  5.3 °C 29.83in /  1010hPa Calm     55% 0.00in /  0mm 0.0 W/m2
06:03 57.6 °F /  14.2 °C 41.9 °F /  5.5 °C 29.83in /  1010hPa Calm     56% 0.00in /  0mm 0.0 W/m2
06:08 57.4 °F /  14.1 °C 41.9 °F /  5.5 °C 29.83in /  1010hPa Calm     56% 0.00in /  0mm 0.0 W/m2
06:14 57.0 °F /  13.9 °C 42.4 °F /  5.8 °C 29.83in /  1010hPa Calm     58% 0.00in /  0mm 0.0 W/m2
06:19 57.0 °F /  13.9 °C 43.7 °F /  6.5 °C 29.83in /  1010hPa Calm   1.0mph /  1.6km/h 61% 0.00in /  0mm 5.0 W/m2
06:24 57.2 °F /  14 °C 43.5 °F /  6.4 °C 29.84in /  1010.4hPa Calm     60% 0.00in /  0mm 9.0 W/m2
06:29 57.2 °F /  14 °C 43.5 °F /  6.4 °C 29.84in /  1010.4hPa Calm     60% 0.00in /  0mm 12.0 W/m2
06:34 57.4 °F /  14.1 °C 44.1 °F /  6.7 °C 29.84in /  1010.4hPa Calm     61% 0.00in /  0mm 14.0 W/m2
06:39 57.4 °F /  14.1 °C 44.1 °F /  6.7 °C 29.84in /  1010.4hPa Calm     61% 0.00in /  0mm 16.0 W/m2
06:44 57.2 °F /  14 °C 43.5 °F /  6.4 °C 29.84in /  1010.4hPa Calm     60% 0.00in /  0mm 19.0 W/m2
06:49 57.2 °F /  14 °C 43.5 °F /  6.4 °C 29.85in /  1010.7hPa Calm     60% 0.00in /  0mm 25.0 W/m2
06:55 57.2 °F /  14 °C 43.9 °F /  6.6 °C 29.85in /  1010.7hPa Calm     61% 0.00in /  0mm 30.0 W/m2
07:00 57.4 °F /  14.1 °C 44.4 °F /  6.9 °C 29.85in /  1010.7hPa Calm     62% 0.00in /  0mm 33.0 W/m2
07:05 57.6 °F /  14.2 °C 45.1 °F /  7.3 °C 29.85in /  1010.7hPa Calm     63% 0.00in /  0mm 35.0 W/m2
07:11 57.9 °F /  14.4 °C 45.3 °F /  7.4 °C 29.85in /  1010.7hPa Calm   1.0mph /  1.6km/h 63% 0.00in /  0mm 39.0 W/m2
07:16 58.3 °F /  14.6 °C 45.7 °F /  7.6 °C 29.85in /  1010.7hPa Calm   1.0mph /  1.6km/h 63% 0.00in /  0mm 44.0 W/m2
07:21 58.8 °F /  14.9 °C 46.6 °F /  8.1 °C 29.85in /  1010.7hPa Calm     64% 0.00in /  0mm 44.0 W/m2
07:27 59.4 °F /  15.2 °C 46.8 °F /  8.2 °C 29.86in /  1011.1hPa Calm     63% 0.00in /  0mm 51.0 W/m2
07:32 60.1 °F /  15.6 °C 47.5 °F /  8.6 °C 29.86in /  1011.1hPa Calm     63% 0.00in /  0mm 54.0 W/m2
07:37 60.8 °F /  16 °C 47.7 °F /  8.7 °C 29.86in /  1011.1hPa Calm     62% 0.00in /  0mm 51.0 W/m2
07:42 61.3 °F /  16.3 °C 48.2 °F /  9 °C 29.86in /  1011.1hPa Calm     62% 0.00in /  0mm 102.0 W/m2
07:48 61.9 °F /  16.6 °C 47.8 °F /  8.8 °C 29.85in /  1010.7hPa Calm     60% 0.00in /  0mm 54.0 W/m2
07:53 62.8 °F /  17.1 °C 48.2 °F /  9 °C 29.86in /  1011.1hPa Calm     59% 0.00in /  0mm 56.0 W/m2
07:58 63.5 °F /  17.5 °C 48.4 °F /  9.1 °C 29.86in /  1011.1hPa Calm     58% 0.00in /  0mm 58.0 W/m2
08:04 64.0 °F /  17.8 °C 48.6 °F /  9.2 °C 29.85in /  1010.7hPa Calm     57% 0.00in /  0mm 60.0 W/m2
08:09 64.9 °F /  18.3 °C 48.9 °F /  9.4 °C 29.85in /  1010.7hPa Calm     56% 0.00in /  0mm 65.0 W/m2
08:14 65.8 °F /  18.8 °C 49.3 °F /  9.6 °C 29.85in /  1010.7hPa NNW 0.9mph /  1.4km/h 2.0mph /  3.2km/h 55% 0.00in /  0mm 72.0 W/m2
08:20 67.1 °F /  19.5 °C 49.5 °F /  9.7 °C 29.85in /  1010.7hPa NNW 2.9mph /  4.7km/h 5.0mph /  8km/h 53% 0.00in /  0mm 332.0 W/m2
08:26 68.4 °F /  20.2 °C 49.5 °F /  9.7 °C 29.85in /  1010.7hPa West 2.0mph /  3.2km/h 5.0mph /  8km/h 51% 0.00in /  0mm 445.0 W/m2
08:31 69.3 °F /  20.7 °C 49.8 °F /  9.9 °C 29.85in /  1010.7hPa WNW 0.9mph /  1.4km/h 3.0mph /  4.8km/h 50% 0.00in /  0mm 462.0 W/m2
08:36 70.2 °F /  21.2 °C 50.2 °F /  10.1 °C 29.85in /  1010.7hPa NW 2.9mph /  4.7km/h 5.0mph /  8km/h 49% 0.00in /  0mm 475.0 W/m2
08:42 71.6 °F /  22 °C 50.4 °F /  10.2 °C 29.85in /  1010.7hPa NNW 4.0mph /  6.4km/h 7.0mph /  11.3km/h 47% 0.00in /  0mm 494.0 W/m2
08:47 72.5 °F /  22.5 °C 50.0 °F /  10 °C 29.85in /  1010.7hPa Calm   2.0mph /  3.2km/h 45% 0.00in /  0mm 513.0 W/m2
08:52 73.2 °F /  22.9 °C 50.0 °F /  10 °C 29.85in /  1010.7hPa NW 4.0mph /  6.4km/h 5.0mph /  8km/h 44% 0.00in /  0mm 527.0 W/m2
08:57 73.9 °F /  23.3 °C 50.0 °F /  10 °C 29.85in /  1010.7hPa Calm   1.0mph /  1.6km/h 43% 0.00in /  0mm 545.0 W/m2
09:02 74.3 °F /  23.5 °C 49.6 °F /  9.8 °C 29.84in /  1010.4hPa NW 2.0mph /  3.2km/h 6.0mph /  9.7km/h 42% 0.00in /  0mm 555.0 W/m2
09:08 74.7 °F /  23.7 °C 49.5 °F /  9.7 °C 29.84in /  1010.4hPa NNW 0.9mph /  1.4km/h 6.0mph /  9.7km/h 41% 0.00in /  0mm 587.0 W/m2
09:13 75.2 °F /  24 °C 49.8 °F /  9.9 °C 29.84in /  1010.4hPa North 4.9mph /  7.9km/h 6.0mph /  9.7km/h 41% 0.00in /  0mm 606.0 W/m2
09:19 75.6 °F /  24.2 °C 49.5 °F /  9.7 °C 29.84in /  1010.4hPa NNW 2.0mph /  3.2km/h 5.0mph /  8km/h 40% 0.00in /  0mm 629.0 W/m2
09:24 76.3 °F /  24.6 °C 49.5 °F /  9.7 °C 29.84in /  1010.4hPa NW 0.9mph /  1.4km/h 6.0mph /  9.7km/h 39% 0.00in /  0mm 649.0 W/m2
09:29 76.5 °F /  24.7 °C 49.6 °F /  9.8 °C 29.84in /  1010.4hPa WNW 4.0mph /  6.4km/h 5.0mph /  8km/h 39% 0.00in /  0mm 661.0 W/m2
09:35 76.8 °F /  24.9 °C 49.3 °F /  9.6 °C 29.84in /  1010.4hPa NW 2.0mph /  3.2km/h 4.0mph /  6.4km/h 38% 0.00in /  0mm 679.0 W/m2
09:40 77.5 °F /  25.3 °C 49.3 °F /  9.6 °C 29.84in /  1010.4hPa North 2.9mph /  4.7km/h 8.0mph /  12.9km/h 37% 0.00in /  0mm 696.0 W/m2
09:45 78.3 °F /  25.7 °C 49.1 °F /  9.5 °C 29.84in /  1010.4hPa NNW 6.0mph /  9.7km/h 10.0mph /  16.1km/h 36% 0.00in /  0mm 714.0 W/m2
09:50 78.4 °F /  25.8 °C 48.6 °F /  9.2 °C 29.84in /  1010.4hPa NNW 4.0mph /  6.4km/h 7.0mph /  11.3km/h 35% 0.00in /  0mm 728.0 W/m2
09:55 79.0 °F /  26.1 °C 48.9 °F /  9.4 °C 29.83in /  1010hPa Calm   5.0mph /  8km/h 35% 0.00in /  0mm 747.0 W/m2
10:00 79.2 °F /  26.2 °C 48.4 °F /  9.1 °C 29.83in /  1010hPa North 2.9mph /  4.7km/h 11.0mph /  17.7km/h 34% 0.00in /  0mm 756.0 W/m2
10:05 79.7 °F /  26.5 °C 48.9 °F /  9.4 °C 29.83in /  1010hPa ENE 8.1mph /  13km/h 8.1mph /  13km/h 34% 0.00in /  0mm 770.0 W/m2
10:10 80.2 °F /  26.8 °C 48.6 °F /  9.2 °C 29.83in /  1010hPa NNW 6.0mph /  9.7km/h 9.0mph /  14.5km/h 33% 0.00in /  0mm 786.0 W/m2
10:15 80.4 °F /  26.9 °C 48.7 °F /  9.3 °C 29.83in /  1010hPa NW 4.9mph /  7.9km/h 9.0mph /  14.5km/h 33% 0.00in /  0mm 800.0 W/m2
10:20 80.2 °F /  26.8 °C 47.7 °F /  8.7 °C 29.83in /  1010hPa NE 4.0mph /  6.4km/h 10.0mph /  16.1km/h 32% 0.00in /  0mm 817.0 W/m2
10:25 80.2 °F /  26.8 °C 46.9 °F /  8.3 °C 29.83in /  1010hPa NNE 2.9mph /  4.7km/h 9.0mph /  14.5km/h 31% 0.00in /  0mm 831.0 W/m2
10:30 80.8 °F /  27.1 °C 48.2 °F /  9 °C 29.83in /  1010hPa Calm   7.0mph /  11.3km/h 32% 0.00in /  0mm 830.0 W/m2
10:35 81.3 °F /  27.4 °C 46.9 °F /  8.3 °C 29.83in /  1010hPa NNE 6.9mph /  11.1km/h 11.0mph /  17.7km/h 30% 0.00in /  0mm 840.0 W/m2
10:40 81.9 °F /  27.7 °C 47.3 °F /  8.5 °C 29.83in /  1010hPa NNW 6.9mph /  11.1km/h 7.0mph /  11.3km/h 30% 0.00in /  0mm 851.0 W/m2
10:45 82.6 °F /  28.1 °C 44.2 °F /  6.8 °C 29.83in /  1010hPa NNW 0.9mph /  1.4km/h 9.0mph /  14.5km/h 26% 0.00in /  0mm 870.0 W/m2
10:51 82.9 °F /  28.3 °C 43.5 °F /  6.4 °C 29.83in /  1010hPa North 4.0mph /  6.4km/h 10.0mph /  16.1km/h 25% 0.00in /  0mm 875.0 W/m2
10:56 83.3 °F /  28.5 °C 44.8 °F /  7.1 °C 29.82in /  1009.7hPa NNW 6.0mph /  9.7km/h 7.0mph /  11.3km/h 26% 0.00in /  0mm 895.0 W/m2
11:01 83.3 °F /  28.5 °C 43.9 °F /  6.6 °C 29.82in /  1009.7hPa NNE 6.9mph /  11.1km/h 12.0mph /  19.3km/h 25% 0.00in /  0mm 898.0 W/m2
11:06 83.5 °F /  28.6 °C 43.0 °F /  6.1 °C 29.82in /  1009.7hPa West 4.9mph /  7.9km/h 11.0mph /  17.7km/h 24% 0.00in /  0mm 904.0 W/m2
11:11 83.7 °F /  28.7 °C 41.9 °F /  5.5 °C 29.82in /  1009.7hPa North 8.1mph /  13km/h 8.1mph /  13km/h 23% 0.00in /  0mm 914.0 W/m2
11:16 83.7 °F /  28.7 °C 45.1 °F /  7.3 °C 29.82in /  1009.7hPa NNE 10.1mph /  16.3km/h 10.1mph /  16.3km/h 26% 0.00in /  0mm 919.0 W/m2
11:21 83.7 °F /  28.7 °C 44.1 °F /  6.7 °C 29.82in /  1009.7hPa North 8.1mph /  13km/h 12.0mph /  19.3km/h 25% 0.00in /  0mm 930.0 W/m2
11:27 84.0 °F /  28.9 °C 43.3 °F /  6.3 °C 29.81in /  1009.4hPa NNE 0.9mph /  1.4km/h 9.0mph /  14.5km/h 24% 0.00in /  0mm 939.0 W/m2
11:33 84.9 °F /  29.4 °C 45.1 °F /  7.3 °C 29.81in /  1009.4hPa NNW 2.9mph /  4.7km/h 7.0mph /  11.3km/h 25% 0.00in /  0mm 942.0 W/m2
11:38 85.5 °F /  29.7 °C 39.7 °F /  4.3 °C 29.80in /  1009hPa NNW 2.0mph /  3.2km/h 12.0mph /  19.3km/h 20% 0.00in /  0mm 953.0 W/m2
11:43 86.0 °F /  30 °C 39.0 °F /  3.9 °C 29.80in /  1009hPa NW 6.0mph /  9.7km/h 13.0mph /  20.9km/h 19% 0.00in /  0mm 951.0 W/m2
11:53 86.2 °F /  30.1 °C 42.8 °F /  6 °C 29.80in /  1009hPa WNW 2.0mph /  3.2km/h 7.0mph /  11.3km/h 22% 0.00in /  0mm 960.0 W/m2
11:58 86.5 °F /  30.3 °C 40.6 °F /  4.8 °C 29.80in /  1009hPa North 2.0mph /  3.2km/h 9.0mph /  14.5km/h 20% 0.00in /  0mm 977.0 W/m2
12:03 87.1 °F /  30.6 °C 39.7 °F /  4.3 °C 29.80in /  1009hPa NNW 4.9mph /  7.9km/h 9.0mph /  14.5km/h 19% 0.00in /  0mm 977.0 W/m2
12:08 87.3 °F /  30.7 °C 38.7 °F /  3.7 °C 29.79in /  1008.7hPa WNW 0.9mph /  1.4km/h 11.0mph /  17.7km/h 18% 0.00in /  0mm 983.0 W/m2
12:14 87.3 °F /  30.7 °C 34.0 °F /  1.1 °C 29.79in /  1008.7hPa WNW 4.0mph /  6.4km/h 4.0mph /  6.4km/h 15% 0.00in /  0mm 986.0 W/m2
12:19 87.4 °F /  30.8 °C 38.7 °F /  3.7 °C 29.79in /  1008.7hPa West 2.0mph /  3.2km/h 6.0mph /  9.7km/h 18% 0.00in /  0mm 976.0 W/m2
12:24 87.6 °F /  30.9 °C 41.5 °F /  5.3 °C 29.79in /  1008.7hPa NNW 4.9mph /  7.9km/h 11.0mph /  17.7km/h 20% 0.00in /  0mm 977.0 W/m2
12:29 88.0 °F /  31.1 °C 37.8 °F /  3.2 °C 29.78in /  1008.4hPa North 2.0mph /  3.2km/h 8.0mph /  12.9km/h 17% 0.00in /  0mm 988.0 W/m2
12:34 88.2 °F /  31.2 °C 37.9 °F /  3.3 °C 29.79in /  1008.7hPa NW 6.9mph /  11.1km/h 15.0mph /  24.1km/h 17% 0.00in /  0mm 990.0 W/m2
12:39 88.5 °F /  31.4 °C 35.1 °F /  1.7 °C 29.78in /  1008.4hPa NW 8.1mph /  13km/h 8.1mph /  13km/h 15% 0.00in /  0mm 986.0 W/m2
12:45 88.9 °F /  31.6 °C 36.9 °F /  2.7 °C 29.78in /  1008.4hPa North 4.9mph /  7.9km/h 14.0mph /  22.5km/h 16% 0.00in /  0mm 988.0 W/m2
12:50 88.7 °F /  31.5 °C 38.3 °F /  3.5 °C 29.78in /  1008.4hPa NNW 0.9mph /  1.4km/h 6.0mph /  9.7km/h 17% 0.00in /  0mm 979.0 W/m2
12:55 89.1 °F /  31.7 °C 35.4 °F /  1.9 °C 29.78in /  1008.4hPa West 2.9mph /  4.7km/h 9.0mph /  14.5km/h 15% 0.00in /  0mm 986.0 W/m2
13:00 89.4 °F /  31.9 °C 38.8 °F /  3.8 °C 29.78in /  1008.4hPa NNW 6.0mph /  9.7km/h 9.0mph /  14.5km/h 17% 0.00in /  0mm 983.0 W/m2
13:05 89.6 °F /  32 °C 37.4 °F /  3 °C 29.78in /  1008.4hPa WNW 2.9mph /  4.7km/h 14.0mph /  22.5km/h 16% 0.00in /  0mm 977.0 W/m2
13:11 89.8 °F /  32.1 °C 37.6 °F /  3.1 °C 29.77in /  1008hPa West 6.0mph /  9.7km/h 6.0mph /  9.7km/h 16% 0.00in /  0mm 976.0 W/m2
13:16 89.6 °F /  32 °C 37.4 °F /  3 °C 29.77in /  1008hPa WNW 8.1mph /  13km/h 11.0mph /  17.7km/h 16% 0.00in /  0mm 984.0 W/m2
13:21 90.1 °F /  32.3 °C 37.9 °F /  3.3 °C 29.77in /  1008hPa NW 4.0mph /  6.4km/h 19.0mph /  30.6km/h 16% 0.00in /  0mm 967.0 W/m2
13:26 90.0 °F /  32.2 °C 37.8 °F /  3.2 °C 29.77in /  1008hPa NNW 4.0mph /  6.4km/h 13.0mph /  20.9km/h 16% 0.00in /  0mm 981.0 W/m2
13:31 90.0 °F /  32.2 °C 37.8 °F /  3.2 °C 29.77in /  1008hPa NNW 4.9mph /  7.9km/h 5.0mph /  8km/h 16% 0.00in /  0mm 993.0 W/m2
13:36 90.1 °F /  32.3 °C 39.4 °F /  4.1 °C 29.77in /  1008hPa WNW 2.0mph /  3.2km/h 11.0mph /  17.7km/h 17% 0.00in /  0mm 367.0 W/m2
13:41 90.0 °F /  32.2 °C 37.8 °F /  3.2 °C 29.76in /  1007.7hPa Calm   8.0mph /  12.9km/h 16% 0.00in /  0mm 997.0 W/m2
13:46 90.3 °F /  32.4 °C 38.1 °F /  3.4 °C 29.76in /  1007.7hPa Calm   14.0mph /  22.5km/h 16% 0.00in /  0mm 974.0 W/m2
13:51 90.7 °F /  32.6 °C 38.3 °F /  3.5 °C 29.76in /  1007.7hPa NNE 4.0mph /  6.4km/h 9.0mph /  14.5km/h 16% 0.00in /  0mm 162.0 W/m2
13:56 89.8 °F /  32.1 °C 37.6 °F /  3.1 °C 29.76in /  1007.7hPa NNW 6.9mph /  11.1km/h 12.0mph /  19.3km/h 16% 0.00in /  0mm 207.0 W/m2
14:02 88.9 °F /  31.6 °C 38.5 °F /  3.6 °C 29.75in /  1007.3hPa NW 8.1mph /  13km/h 12.0mph /  19.3km/h 17% 0.00in /  0mm 415.0 W/m2
14:08 87.6 °F /  30.9 °C 38.8 °F /  3.8 °C 29.75in /  1007.3hPa North 8.1mph /  13km/h 15.0mph /  24.1km/h 18% 0.00in /  0mm 287.0 W/m2
14:13 87.3 °F /  30.7 °C 38.7 °F /  3.7 °C 29.75in /  1007.3hPa WNW 0.9mph /  1.4km/h 7.0mph /  11.3km/h 18% 0.00in /  0mm 260.0 W/m2
14:18 87.1 °F /  30.6 °C 38.5 °F /  3.6 °C 29.75in /  1007.3hPa NNW 6.9mph /  11.1km/h 11.0mph /  17.7km/h 18% 0.00in /  0mm 1060.0 W/m2
14:24 88.2 °F /  31.2 °C 37.9 °F /  3.3 °C 29.75in /  1007.3hPa NNW 2.9mph /  4.7km/h 9.0mph /  14.5km/h 17% 0.00in /  0mm 965.0 W/m2
14:29 88.9 °F /  31.6 °C 36.9 °F /  2.7 °C 29.74in /  1007hPa NNW 6.9mph /  11.1km/h 10.0mph /  16.1km/h 16% 0.00in /  0mm 272.0 W/m2
14:34 88.9 °F /  31.6 °C 36.9 °F /  2.7 °C 29.75in /  1007.3hPa West 0.9mph /  1.4km/h 17.0mph /  27.4km/h 16% 0.00in /  0mm 220.0 W/m2
14:39 88.3 °F /  31.3 °C 36.5 °F /  2.5 °C 29.75in /  1007.3hPa WNW 0.9mph /  1.4km/h 8.0mph /  12.9km/h 16% 0.00in /  0mm 258.0 W/m2
14:44 88.2 °F /  31.2 °C 36.3 °F /  2.4 °C 29.74in /  1007hPa NE 0.9mph /  1.4km/h 11.0mph /  17.7km/h 16% 0.00in /  0mm 302.0 W/m2
14:49 88.3 °F /  31.3 °C 36.5 °F /  2.5 °C 29.74in /  1007hPa NNE 8.9mph /  14.3km/h 12.0mph /  19.3km/h 16% 0.00in /  0mm 1000.0 W/m2
14:54 90.0 °F /  32.2 °C 34.3 °F /  1.3 °C 29.73in /  1006.7hPa NW 2.9mph /  4.7km/h 5.0mph /  8km/h 14% 0.00in /  0mm 947.0 W/m2
14:59 90.7 °F /  32.6 °C 33.1 °F /  0.6 °C 29.73in /  1006.7hPa WNW 4.0mph /  6.4km/h 9.0mph /  14.5km/h 13% 0.00in /  0mm 244.0 W/m2
15:05 90.0 °F /  32.2 °C 36.1 °F /  2.3 °C 29.72in /  1006.3hPa WNW 6.9mph /  11.1km/h 11.0mph /  17.7km/h 15% 0.00in /  0mm 244.0 W/m2
15:10 90.1 °F /  32.3 °C 34.5 °F /  1.4 °C 29.73in /  1006.7hPa NW 4.9mph /  7.9km/h 10.0mph /  16.1km/h 14% 0.00in /  0mm 244.0 W/m2
15:15 90.3 °F /  32.4 °C 34.7 °F /  1.5 °C 29.72in /  1006.3hPa WNW 0.9mph /  1.4km/h 4.0mph /  6.4km/h 14% 0.00in /  0mm 218.0 W/m2
15:20 89.8 °F /  32.1 °C 34.2 °F /  1.2 °C 29.72in /  1006.3hPa NW 4.0mph /  6.4km/h 7.0mph /  11.3km/h 14% 0.00in /  0mm 230.0 W/m2
15:25 89.4 °F /  31.9 °C 34.0 °F /  1.1 °C 29.72in /  1006.3hPa SW 6.0mph /  9.7km/h 8.0mph /  12.9km/h 14% 0.00in /  0mm 889.0 W/m2
15:30 89.4 °F /  31.9 °C 34.0 °F /  1.1 °C 29.72in /  1006.3hPa WNW 2.0mph /  3.2km/h 3.0mph /  4.8km/h 14% 0.00in /  0mm 264.0 W/m2
15:35 89.4 °F /  31.9 °C 32.2 °F /  0.1 °C 29.71in /  1006hPa WNW 2.0mph /  3.2km/h 8.0mph /  12.9km/h 13% 0.00in /  0mm 185.0 W/m2
15:40 88.9 °F /  31.6 °C 33.6 °F /  0.9 °C 29.71in /  1006hPa NNW 2.0mph /  3.2km/h 9.0mph /  14.5km/h 14% 0.00in /  0mm 812.0 W/m2
15:45 89.1 °F /  31.7 °C 33.6 °F /  0.9 °C 29.71in /  1006hPa West 0.9mph /  1.4km/h 2.0mph /  3.2km/h 14% 0.00in /  0mm 747.0 W/m2
15:51 89.4 °F /  31.9 °C 34.0 °F /  1.1 °C 29.71in /  1006hPa North 4.0mph /  6.4km/h 12.0mph /  19.3km/h 14% 0.00in /  0mm 185.0 W/m2
15:57 89.1 °F /  31.7 °C 33.6 °F /  0.9 °C 29.71in /  1006hPa NNW 6.0mph /  9.7km/h 9.0mph /  14.5km/h 14% 0.00in /  0mm 165.0 W/m2
16:02 88.7 °F /  31.5 °C 35.1 °F /  1.7 °C 29.71in /  1006hPa NW 0.9mph /  1.4km/h 6.0mph /  9.7km/h 15% 0.00in /  0mm 172.0 W/m2
16:12 88.0 °F /  31.1 °C 34.5 °F /  1.4 °C 29.70in /  1005.6hPa North 6.0mph /  9.7km/h 11.0mph /  17.7km/h 15% 0.00in /  0mm 176.0 W/m2
16:17 88.2 °F /  31.2 °C 34.7 °F /  1.5 °C 29.70in /  1005.6hPa Calm   7.0mph /  11.3km/h 15% 0.00in /  0mm 165.0 W/m2
16:22 88.0 °F /  31.1 °C 34.5 °F /  1.4 °C 29.70in /  1005.6hPa West 0.9mph /  1.4km/h 3.0mph /  4.8km/h 15% 0.00in /  0mm 174.0 W/m2
16:27 88.0 °F /  31.1 °C 34.5 °F /  1.4 °C 29.70in /  1005.6hPa NE 4.9mph /  7.9km/h 9.0mph /  14.5km/h 15% 0.00in /  0mm 585.0 W/m2
16:32 88.5 °F /  31.4 °C 35.1 °F /  1.7 °C 29.70in /  1005.6hPa Calm   5.0mph /  8km/h 15% 0.00in /  0mm 137.0 W/m2
16:38 88.5 °F /  31.4 °C 35.1 °F /  1.7 °C 29.70in /  1005.6hPa NNW 0.9mph /  1.4km/h 5.0mph /  8km/h 15% 0.00in /  0mm 144.0 W/m2
16:43 88.2 °F /  31.2 °C 34.7 °F /  1.5 °C 29.70in /  1005.6hPa Calm   10.0mph /  16.1km/h 15% 0.00in /  0mm 524.0 W/m2
16:48 88.5 °F /  31.4 °C 33.3 °F /  0.7 °C 29.70in /  1005.6hPa Calm   6.0mph /  9.7km/h 14% 0.00in /  0mm 483.0 W/m2
16:53 89.4 °F /  31.9 °C 32.2 °F /  0.1 °C 29.69in /  1005.3hPa NE 0.9mph /  1.4km/h 7.0mph /  11.3km/h 13% 0.00in /  0mm 438.0 W/m2
16:58 90.1 °F /  32.3 °C 28.6 °F /  -1.9 °C 29.70in /  1005.6hPa NW 4.9mph /  7.9km/h 8.0mph /  12.9km/h 11% 0.00in /  0mm 417.0 W/m2
17:03 90.1 °F /  32.3 °C 28.6 °F /  -1.9 °C 29.70in /  1005.6hPa West 6.0mph /  9.7km/h 9.0mph /  14.5km/h 11% 0.00in /  0mm 359.0 W/m2
17:08 89.4 °F /  31.9 °C 28.0 °F /  -2.2 °C 29.70in /  1005.6hPa West 2.9mph /  4.7km/h 6.0mph /  9.7km/h 11% 0.00in /  0mm 102.0 W/m2
17:13 88.9 °F /  31.6 °C 29.7 °F /  -1.3 °C 29.70in /  1005.6hPa West 6.0mph /  9.7km/h 11.0mph /  17.7km/h 12% 0.00in /  0mm 345.0 W/m2
17:18 88.9 °F /  31.6 °C 29.7 °F /  -1.3 °C 29.70in /  1005.6hPa WSW 2.9mph /  4.7km/h 11.0mph /  17.7km/h 12% 0.00in /  0mm 323.0 W/m2
17:23 89.1 °F /  31.7 °C 29.8 °F /  -1.2 °C 29.70in /  1005.6hPa Calm   8.0mph /  12.9km/h 12% 0.00in /  0mm 288.0 W/m2
17:29 88.9 °F /  31.6 °C 29.7 °F /  -1.3 °C 29.70in /  1005.6hPa WNW 8.9mph /  14.3km/h 10.0mph /  16.1km/h 12% 0.00in /  0mm 272.0 W/m2
17:34 88.7 °F /  31.5 °C 27.5 °F /  -2.5 °C 29.70in /  1005.6hPa WSW 2.0mph /  3.2km/h 8.0mph /  12.9km/h 11% 0.00in /  0mm 251.0 W/m2
17:40 88.5 °F /  31.4 °C 29.5 °F /  -1.4 °C 29.70in /  1005.6hPa WNW 2.9mph /  4.7km/h 9.0mph /  14.5km/h 12% 0.00in /  0mm 225.0 W/m2
17:45 88.5 °F /  31.4 °C 29.5 °F /  -1.4 °C 29.70in /  1005.6hPa West 2.0mph /  3.2km/h 10.0mph /  16.1km/h 12% 0.00in /  0mm 211.0 W/m2
17:50 88.2 °F /  31.2 °C 29.1 °F /  -1.6 °C 29.70in /  1005.6hPa West 0.9mph /  1.4km/h 10.0mph /  16.1km/h 12% 0.00in /  0mm 193.0 W/m2
17:55 88.0 °F /  31.1 °C 28.9 °F /  -1.7 °C 29.71in /  1006hPa West 2.0mph /  3.2km/h 8.0mph /  12.9km/h 12% 0.00in /  0mm 176.0 W/m2
18:00 87.4 °F /  30.8 °C 26.4 °F /  -3.1 °C 29.70in /  1005.6hPa WNW 4.9mph /  7.9km/h 11.0mph /  17.7km/h 11% 0.00in /  0mm 160.0 W/m2
18:05 87.4 °F /  30.8 °C 28.6 °F /  -1.9 °C 29.71in /  1006hPa WNW 2.0mph /  3.2km/h 3.0mph /  4.8km/h 12% 0.00in /  0mm 137.0 W/m2
18:10 87.3 °F /  30.7 °C 26.4 °F /  -3.1 °C 29.71in /  1006hPa West 6.9mph /  11.1km/h 9.0mph /  14.5km/h 11% 0.00in /  0mm 116.0 W/m2
18:15 87.1 °F /  30.6 °C 26.2 °F /  -3.2 °C 29.71in /  1006hPa West 6.0mph /  9.7km/h 7.0mph /  11.3km/h 11% 0.00in /  0mm 97.0 W/m2
18:18 86.7 °F /  30.4 °C 25.9 °F /  -3.4 °C 29.71in /  1006hPa WNW 2.0mph /  3.2km/h 11.0mph /  17.7km/h 11% 0.00in /  0mm 88.0 W/m2
18:24 86.2 °F /  30.1 °C 27.7 °F /  -2.4 °C 29.71in /  1006hPa WNW 4.9mph /  7.9km/h 9.0mph /  14.5km/h 12% 0.00in /  0mm 67.0 W/m2
18:29 85.5 °F /  29.7 °C 27.1 °F /  -2.7 °C 29.72in /  1006.3hPa WNW 2.9mph /  4.7km/h 13.0mph /  20.9km/h 12% 0.00in /  0mm 53.0 W/m2
18:34 84.6 °F /  29.2 °C 26.4 °F /  -3.1 °C 29.72in /  1006.3hPa WSW 11.0mph /  17.7km/h 11.0mph /  17.7km/h 12% 0.00in /  0mm 37.0 W/m2
18:39 83.8 °F /  28.8 °C 25.9 °F /  -3.4 °C 29.72in /  1006.3hPa WNW 2.9mph /  4.7km/h 9.0mph /  14.5km/h 12% 0.00in /  0mm 28.0 W/m2
18:44 83.3 °F /  28.5 °C 25.3 °F /  -3.7 °C 29.72in /  1006.3hPa WSW 8.1mph /  13km/h 8.1mph /  13km/h 12% 0.00in /  0mm 16.0 W/m2
18:49 82.8 °F /  28.2 °C 25.0 °F /  -3.9 °C 29.72in /  1006.3hPa West 2.9mph /  4.7km/h 9.0mph /  14.5km/h 12% 0.00in /  0mm 11.0 W/m2
18:54 82.2 °F /  27.9 °C 24.6 °F /  -4.1 °C 29.73in /  1006.7hPa SW 4.0mph /  6.4km/h 7.0mph /  11.3km/h 12% 0.00in /  0mm 7.0 W/m2
18:59 81.9 °F /  27.7 °C 24.3 °F /  -4.3 °C 29.73in /  1006.7hPa SW 8.9mph /  14.3km/h 9.0mph /  14.5km/h 12% 0.00in /  0mm 0.0 W/m2
19:04 81.3 °F /  27.4 °C 25.7 °F /  -3.5 °C 29.73in /  1006.7hPa WSW 4.0mph /  6.4km/h 8.0mph /  12.9km/h 13% 0.00in /  0mm 0.0 W/m2
19:10 81.0 °F /  27.2 °C 25.5 °F /  -3.6 °C 29.73in /  1006.7hPa West 2.0mph /  3.2km/h 6.0mph /  9.7km/h 13% 0.00in /  0mm 0.0 W/m2
19:11 80.8 °F /  27.1 °C 25.3 °F /  -3.7 °C 29.73in /  1006.7hPa Calm   9.0mph /  14.5km/h 13% 0.00in /  0mm 0.0 W/m2
19:17 80.2 °F /  26.8 °C 25.0 °F /  -3.9 °C 29.73in /  1006.7hPa SSW 2.9mph /  4.7km/h 9.0mph /  14.5km/h 13% 0.00in /  0mm 0.0 W/m2
19:22 79.9 °F /  26.6 °C 24.6 °F /  -4.1 °C 29.73in /  1006.7hPa West 4.9mph /  7.9km/h 6.0mph /  9.7km/h 13% 0.00in /  0mm 0.0 W/m2
19:27 79.5 °F /  26.4 °C 24.4 °F /  -4.2 °C 29.73in /  1006.7hPa Calm   3.0mph /  4.8km/h 13% 0.00in /  0mm 0.0 W/m2
19:32 79.2 °F /  26.2 °C 25.9 °F /  -3.4 °C 29.74in /  1007hPa Calm   2.0mph /  3.2km/h 14% 0.00in /  0mm 0.0 W/m2
19:37 78.8 °F /  26 °C 25.5 °F /  -3.6 °C 29.74in /  1007hPa Calm   3.0mph /  4.8km/h 14% 0.00in /  0mm 0.0 W/m2
19:42 78.6 °F /  25.9 °C 25.5 °F /  -3.6 °C 29.74in /  1007hPa SW 0.9mph /  1.4km/h 1.0mph /  1.6km/h 14% 0.00in /  0mm 0.0 W/m2
19:47 78.3 °F /  25.7 °C 25.2 °F /  -3.8 °C 29.75in /  1007.3hPa Calm   6.0mph /  9.7km/h 14% 0.00in /  0mm 0.0 W/m2
19:52 77.9 °F /  25.5 °C 26.6 °F /  -3 °C 29.75in /  1007.3hPa Calm   3.0mph /  4.8km/h 15% 0.00in /  0mm 0.0 W/m2
19:57 77.7 °F /  25.4 °C 26.4 °F /  -3.1 °C 29.75in /  1007.3hPa SSW 0.9mph /  1.4km/h 5.0mph /  8km/h 15% 0.00in /  0mm 0.0 W/m2
20:03 77.4 °F /  25.2 °C 26.1 °F /  -3.3 °C 29.75in /  1007.3hPa WSW 2.0mph /  3.2km/h 3.0mph /  4.8km/h 15% 0.00in /  0mm 0.0 W/m2
20:08 77.2 °F /  25.1 °C 25.9 °F /  -3.4 °C 29.76in /  1007.7hPa Calm   4.0mph /  6.4km/h 15% 0.00in /  0mm 0.0 W/m2
20:13 76.8 °F /  24.9 °C 25.7 °F /  -3.5 °C 29.76in /  1007.7hPa Calm   2.0mph /  3.2km/h 15% 0.00in /  0mm 0.0 W/m2
20:18 76.6 °F /  24.8 °C 27.1 °F /  -2.7 °C 29.76in /  1007.7hPa Calm     16% 0.00in /  0mm 0.0 W/m2
20:23 76.3 °F /  24.6 °C 26.8 °F /  -2.9 °C 29.77in /  1008hPa Calm     16% 0.00in /  0mm 0.0 W/m2
20:28 75.9 °F /  24.4 °C 26.4 °F /  -3.1 °C 29.77in /  1008hPa Calm     16% 0.00in /  0mm 0.0 W/m2
20:33 75.6 °F /  24.2 °C 26.2 °F /  -3.2 °C 29.77in /  1008hPa Calm   3.0mph /  4.8km/h 16% 0.00in /  0mm 0.0 W/m2
20:38 75.4 °F /  24.1 °C 26.1 °F /  -3.3 °C 29.78in /  1008.4hPa Calm     16% 0.00in /  0mm 0.0 W/m2
20:44 74.8 °F /  23.8 °C 27.1 °F /  -2.7 °C 29.78in /  1008.4hPa Calm     17% 0.00in /  0mm 0.0 W/m2
20:49 74.5 °F /  23.6 °C 26.8 °F /  -2.9 °C 29.77in /  1008hPa NW 0.9mph /  1.4km/h 2.0mph /  3.2km/h 17% 0.00in /  0mm 0.0 W/m2
20:54 74.1 °F /  23.4 °C 26.6 °F /  -3 °C 29.78in /  1008.4hPa NNW 0.9mph /  1.4km/h 1.0mph /  1.6km/h 17% 0.00in /  0mm 0.0 W/m2
20:59 73.6 °F /  23.1 °C 26.1 °F /  -3.3 °C 29.78in /  1008.4hPa Calm   2.0mph /  3.2km/h 17% 0.00in /  0mm 0.0 W/m2
21:05 73.2 °F /  22.9 °C 25.7 °F /  -3.5 °C 29.78in /  1008.4hPa NNW 0.9mph /  1.4km/h 1.0mph /  1.6km/h 17% 0.00in /  0mm 0.0 W/m2
21:10 73.0 °F /  22.8 °C 27.0 °F /  -2.8 °C 29.78in /  1008.4hPa Calm     18% 0.00in /  0mm 0.0 W/m2
21:15 72.7 °F /  22.6 °C 25.3 °F /  -3.7 °C 29.78in /  1008.4hPa Calm   1.0mph /  1.6km/h 17% 0.00in /  0mm 0.0 W/m2
21:20 72.5 °F /  22.5 °C 26.6 °F /  -3 °C 29.79in /  1008.7hPa Calm   2.0mph /  3.2km/h 18% 0.00in /  0mm 0.0 W/m2
21:25 72.3 °F /  22.4 °C 26.4 °F /  -3.1 °C 29.79in /  1008.7hPa Calm   1.0mph /  1.6km/h 18% 0.00in /  0mm 0.0 W/m2
21:30 72.0 °F /  22.2 °C 26.1 °F /  -3.3 °C 29.80in /  1009hPa Calm   1.0mph /  1.6km/h 18% 0.00in /  0mm 0.0 W/m2
21:35 71.8 °F /  22.1 °C 26.1 °F /  -3.3 °C 29.80in /  1009hPa Calm   2.0mph /  3.2km/h 18% 0.00in /  0mm 0.0 W/m2
21:41 71.8 °F /  22.1 °C 26.1 °F /  -3.3 °C 29.80in /  1009hPa Calm   2.0mph /  3.2km/h 18% 0.00in /  0mm 0.0 W/m2
21:46 71.6 °F /  22 °C 25.9 °F /  -3.4 °C 29.80in /  1009hPa Calm   1.0mph /  1.6km/h 18% 0.00in /  0mm 0.0 W/m2
21:51 71.4 °F /  21.9 °C 25.7 °F /  -3.5 °C 29.81in /  1009.4hPa West 0.9mph /  1.4km/h 1.0mph /  1.6km/h 18% 0.00in /  0mm 0.0 W/m2
21:56 71.6 °F /  22 °C 25.9 °F /  -3.4 °C 29.81in /  1009.4hPa West 0.9mph /  1.4km/h 5.0mph /  8km/h 18% 0.00in /  0mm 0.0 W/m2
22:01 71.8 °F /  22.1 °C 24.6 °F /  -4.1 °C 29.81in /  1009.4hPa Calm   1.0mph /  1.6km/h 17% 0.00in /  0mm 0.0 W/m2
22:06 71.8 °F /  22.1 °C 26.1 °F /  -3.3 °C 29.82in /  1009.7hPa NNW 2.0mph /  3.2km/h 2.0mph /  3.2km/h 18% 0.00in /  0mm 0.0 W/m2
22:11 71.4 °F /  21.9 °C 25.7 °F /  -3.5 °C 29.82in /  1009.7hPa NNW 2.0mph /  3.2km/h 4.0mph /  6.4km/h 18% 0.00in /  0mm 0.0 W/m2
22:16 71.2 °F /  21.8 °C 25.5 °F /  -3.6 °C 29.82in /  1009.7hPa NNE 2.0mph /  3.2km/h 4.0mph /  6.4km/h 18% 0.00in /  0mm 0.0 W/m2
22:21 71.1 °F /  21.7 °C 26.8 °F /  -2.9 °C 29.82in /  1009.7hPa NNW 0.9mph /  1.4km/h 4.0mph /  6.4km/h 19% 0.00in /  0mm 0.0 W/m2
22:26 71.1 °F /  21.7 °C 29.1 °F /  -1.6 °C 29.82in /  1009.7hPa Calm   4.0mph /  6.4km/h 21% 0.00in /  0mm 0.0 W/m2
22:32 70.9 °F /  21.6 °C 28.9 °F /  -1.7 °C 29.82in /  1009.7hPa NNW 0.9mph /  1.4km/h 7.0mph /  11.3km/h 21% 0.00in /  0mm 0.0 W/m2
22:37 70.9 °F /  21.6 °C 30.2 °F /  -1 °C 29.83in /  1010hPa NNW 0.9mph /  1.4km/h 4.0mph /  6.4km/h 22% 0.00in /  0mm 0.0 W/m2
22:42 70.5 °F /  21.4 °C 29.8 °F /  -1.2 °C 29.83in /  1010hPa Calm   2.0mph /  3.2km/h 22% 0.00in /  0mm 0.0 W/m2
22:47 70.3 °F /  21.3 °C 29.7 °F /  -1.3 °C 29.83in /  1010hPa Calm   1.0mph /  1.6km/h 22% 0.00in /  0mm 0.0 W/m2
22:52 70.2 °F /  21.2 °C 30.6 °F /  -0.8 °C 29.83in /  1010hPa Calm   1.0mph /  1.6km/h 23% 0.00in /  0mm 0.0 W/m2
22:57 69.8 °F /  21 °C 30.4 °F /  -0.9 °C 29.83in /  1010hPa Calm     23% 0.00in /  0mm 0.0 W/m2
23:02 69.4 °F /  20.8 °C 31.1 °F /  -0.5 °C 29.83in /  1010hPa Calm   2.0mph /  3.2km/h 24% 0.00in /  0mm 0.0 W/m2
23:07 69.3 °F /  20.7 °C 30.9 °F /  -0.6 °C 29.83in /  1010hPa Calm   1.0mph /  1.6km/h 24% 0.00in /  0mm 0.0 W/m2
23:13 69.1 °F /  20.6 °C 30.7 °F /  -0.7 °C 29.83in /  1010hPa Calm     24% 0.00in /  0mm 0.0 W/m2
23:18 68.7 °F /  20.4 °C 30.4 °F /  -0.9 °C 29.83in /  1010hPa SSE 2.0mph /  3.2km/h 4.0mph /  6.4km/h 24% 0.00in /  0mm 0.0 W/m2
23:23 68.4 °F /  20.2 °C 30.2 °F /  -1 °C 29.83in /  1010hPa SSE 0.9mph /  1.4km/h 3.0mph /  4.8km/h 24% 0.00in /  0mm 0.0 W/m2
23:28 67.8 °F /  19.9 °C 29.7 °F /  -1.3 °C 29.83in /  1010hPa Calm   1.0mph /  1.6km/h 24% 0.00in /  0mm 0.0 W/m2
23:33 67.5 °F /  19.7 °C 29.5 °F /  -1.4 °C 29.83in /  1010hPa Calm     24% 0.00in /  0mm 0.0 W/m2
23:38 66.7 °F /  19.3 °C 29.8 °F /  -1.2 °C 29.83in /  1010hPa Calm     25% 0.00in /  0mm 0.0 W/m2
23:43 66.0 °F /  18.9 °C 29.1 °F /  -1.6 °C 29.83in /  1010hPa Calm     25% 0.00in /  0mm 0.0 W/m2
23:48 65.7 °F /  18.7 °C 28.9 °F /  -1.7 °C 29.83in /  1010hPa Calm     25% 0.00in /  0mm 0.0 W/m2
23:53 65.5 °F /  18.6 °C 29.7 °F /  -1.3 °C 29.83in /  1010hPa Calm     26% 0.00in /  0mm 0.0 W/m2
23:59 65.1 °F /  18.4 °C 29.3 °F /  -1.5 °C 29.83in /  1010hPa Calm     26% 0.00in /  0mm 0.0 W/m2
Olympia, Windhoek, Namibia
Compliments of Weather Underground - 3.25 mb